sensor_id;sensor_type;location;lat;lon;timestamp;pressure;altitude;pressure_sealevel;temperature;humidity
76858;BME280;65830;0.000;0.000;2023-07-31T00:00:23;99078.63;;;23.92;52.29
76858;BME280;65830;0.000;0.000;2023-07-31T00:02:49;99074.88;;;23.93;55.17
76858;BME280;65830;0.000;0.000;2023-07-31T00:05:15;99076.03;;;23.97;57.92
76858;BME280;65830;0.000;0.000;2023-07-31T00:07:40;99080.75;;;23.90;50.79
76858;BME280;65830;0.000;0.000;2023-07-31T00:10:06;99077.00;;;23.91;49.90
76858;BME280;65830;0.000;0.000;2023-07-31T00:12:32;99074.88;;;23.93;52.20
76858;BME280;65830;0.000;0.000;2023-07-31T00:14:58;99077.47;;;23.88;51.69
76858;BME280;65830;0.000;0.000;2023-07-31T00:17:23;99074.28;;;23.91;54.04
76858;BME280;65830;0.000;0.000;2023-07-31T00:19:48;99080.63;;;23.96;46.35
76858;BME280;65830;0.000;0.000;2023-07-31T00:22:16;99094.06;;;23.91;47.46
76858;BME280;65830;0.000;0.000;2023-07-31T00:24:41;99095.03;;;23.85;46.97
76858;BME280;65830;0.000;0.000;2023-07-31T00:27:07;99099.06;;;23.83;46.82
76858;BME280;65830;0.000;0.000;2023-07-31T00:29:32;99090.78;;;23.89;51.67
76858;BME280;65830;0.000;0.000;2023-07-31T00:31:58;99102.34;;;23.85;53.97
76858;BME280;65830;0.000;0.000;2023-07-31T00:34:23;99099.88;;;23.83;51.60
76858;BME280;65830;0.000;0.000;2023-07-31T00:36:49;99093.72;;;23.88;50.51
76858;BME280;65830;0.000;0.000;2023-07-31T00:39:15;99094.31;;;23.90;51.09
76858;BME280;65830;0.000;0.000;2023-07-31T00:41:41;99086.66;;;23.87;51.14
76858;BME280;65830;0.000;0.000;2023-07-31T00:44:06;99098.91;;;23.89;54.34
76858;BME280;65830;0.000;0.000;2023-07-31T00:46:32;99092.19;;;23.92;51.40
76858;BME280;65830;0.000;0.000;2023-07-31T00:48:58;99088.19;;;23.94;50.76
76858;BME280;65830;0.000;0.000;2023-07-31T00:51:24;99090.28;;;23.92;51.65
76858;BME280;65830;0.000;0.000;2023-07-31T00:53:50;99096.78;;;23.91;53.18
76858;BME280;65830;0.000;0.000;2023-07-31T00:56:16;99098.69;;;23.91;48.37
76858;BME280;65830;0.000;0.000;2023-07-31T00:58:42;99109.97;;;23.88;49.01
76858;BME280;65830;0.000;0.000;2023-07-31T01:01:07;99099.72;;;23.90;50.43
76858;BME280;65830;0.000;0.000;2023-07-31T01:03:33;99095.50;;;23.82;51.57
76858;BME280;65830;0.000;0.000;2023-07-31T01:06:24;99096.34;;;23.83;48.83
76858;BME280;65830;0.000;0.000;2023-07-31T01:08:48;99104.09;;;23.91;48.76
76858;BME280;65830;0.000;0.000;2023-07-31T01:11:21;99109.00;;;23.94;47.36
76858;BME280;65830;0.000;0.000;2023-07-31T01:13:50;99107.38;;;23.93;49.69
76858;BME280;65830;0.000;0.000;2023-07-31T01:16:16;99112.59;;;23.83;51.09
76858;BME280;65830;0.000;0.000;2023-07-31T01:18:41;99110.59;;;23.78;49.65
76858;BME280;65830;0.000;0.000;2023-07-31T01:21:16;99113.06;;;23.79;51.09
76858;BME280;65830;0.000;0.000;2023-07-31T01:26:15;99113.97;;;23.73;49.29
76858;BME280;65830;0.000;0.000;2023-07-31T01:31:24;99108.72;;;23.55;48.22
76858;BME280;65830;0.000;0.000;2023-07-31T01:33:52;99109.78;;;23.54;48.94
76858;BME280;65830;0.000;0.000;2023-07-31T01:36:19;99107.78;;;23.61;46.80
76858;BME280;65830;0.000;0.000;2023-07-31T01:38:44;99116.00;;;23.66;47.16
76858;BME280;65830;0.000;0.000;2023-07-31T01:41:10;99113.19;;;23.49;48.13
76858;BME280;65830;0.000;0.000;2023-07-31T01:43:36;99112.97;;;23.39;49.11
76858;BME280;65830;0.000;0.000;2023-07-31T01:46:04;99110.94;;;23.34;48.45
76858;BME280;65830;0.000;0.000;2023-07-31T01:48:29;99110.59;;;23.31;47.71
76858;BME280;65830;0.000;0.000;2023-07-31T01:51:00;99107.28;;;23.29;50.78
76858;BME280;65830;0.000;0.000;2023-07-31T01:53:26;99100.97;;;23.23;48.32
76858;BME280;65830;0.000;0.000;2023-07-31T01:55:51;99100.38;;;23.21;48.68
76858;BME280;65830;0.000;0.000;2023-07-31T01:58:17;99103.69;;;23.23;49.52
76858;BME280;65830;0.000;0.000;2023-07-31T02:00:42;99103.91;;;23.22;48.30
76858;BME280;65830;0.000;0.000;2023-07-31T02:03:08;99100.47;;;23.26;49.96
76858;BME280;65830;0.000;0.000;2023-07-31T02:05:33;99102.47;;;23.19;47.92
76858;BME280;65830;0.000;0.000;2023-07-31T02:07:59;99102.97;;;23.16;48.24
76858;BME280;65830;0.000;0.000;2023-07-31T02:10:26;99099.91;;;23.24;47.58
76858;BME280;65830;0.000;0.000;2023-07-31T02:12:52;99107.44;;;23.22;48.35
76858;BME280;65830;0.000;0.000;2023-07-31T02:15:17;99100.38;;;23.21;47.77
76858;BME280;65830;0.000;0.000;2023-07-31T02:17:43;99107.06;;;23.18;47.70
76858;BME280;65830;0.000;0.000;2023-07-31T02:20:09;99111.66;;;23.18;47.70
76858;BME280;65830;0.000;0.000;2023-07-31T02:22:35;99102.97;;;23.16;47.95
76858;BME280;65830;0.000;0.000;2023-07-31T02:25:01;99096.84;;;23.20;46.92
76858;BME280;65830;0.000;0.000;2023-07-31T02:27:27;99106.63;;;23.22;46.96
76858;BME280;65830;0.000;0.000;2023-07-31T02:29:53;99103.41;;;23.25;47.73
76858;BME280;65830;0.000;0.000;2023-07-31T02:32:20;99095.78;;;23.22;49.53
76858;BME280;65830;0.000;0.000;2023-07-31T02:34:45;99090.16;;;23.23;48.11
76858;BME280;65830;0.000;0.000;2023-07-31T02:37:11;99092.59;;;23.25;49.14
76858;BME280;65830;0.000;0.000;2023-07-31T02:39:36;99088.94;;;23.31;49.91
76858;BME280;65830;0.000;0.000;2023-07-31T02:42:01;99083.53;;;23.31;51.04
76858;BME280;65830;0.000;0.000;2023-07-31T02:44:27;99084.38;;;23.31;52.45
76858;BME280;65830;0.000;0.000;2023-07-31T02:46:52;99088.84;;;23.26;52.84
76858;BME280;65830;0.000;0.000;2023-07-31T02:49:18;99092.59;;;23.25;53.86
76858;BME280;65830;0.000;0.000;2023-07-31T02:51:43;99087.75;;;23.27;54.49
76858;BME280;65830;0.000;0.000;2023-07-31T02:54:09;99080.00;;;23.30;54.74
76858;BME280;65830;0.000;0.000;2023-07-31T02:56:34;99075.19;;;23.32;55.43
76858;BME280;65830;0.000;0.000;2023-07-31T02:59:00;99083.41;;;23.37;55.40
76858;BME280;65830;0.000;0.000;2023-07-31T03:01:25;99075.19;;;23.32;56.14
76858;BME280;65830;0.000;0.000;2023-07-31T03:03:50;99073.28;;;23.33;56.64
76858;BME280;65830;0.000;0.000;2023-07-31T03:06:16;99073.63;;;23.36;56.70
76858;BME280;65830;0.000;0.000;2023-07-31T03:08:41;99074.72;;;23.35;57.19
76858;BME280;65830;0.000;0.000;2023-07-31T03:11:07;99073.91;;;23.35;57.51
76858;BME280;65830;0.000;0.000;2023-07-31T03:13:32;99071.44;;;23.33;57.62
76858;BME280;65830;0.000;0.000;2023-07-31T03:15:58;99065.16;;;23.33;58.12
76858;BME280;65830;0.000;0.000;2023-07-31T03:18:23;99085.66;;;23.17;58.81
76858;BME280;65830;0.000;0.000;2023-07-31T03:20:49;99081.53;;;23.03;60.71
76858;BME280;65830;0.000;0.000;2023-07-31T03:23:15;99093.25;;;22.96;62.54
76858;BME280;65830;0.000;0.000;2023-07-31T03:25:42;99094.03;;;22.73;64.91
76858;BME280;65830;0.000;0.000;2023-07-31T03:28:20;99087.50;;;22.39;67.62
76858;BME280;65830;0.000;0.000;2023-07-31T03:30:45;99101.19;;;22.26;69.45
76858;BME280;65830;0.000;0.000;2023-07-31T03:33:11;99103.91;;;21.89;72.12
76858;BME280;65830;0.000;0.000;2023-07-31T03:35:36;99102.44;;;21.74;73.41
76858;BME280;65830;0.000;0.000;2023-07-31T03:38:13;99114.19;;;21.61;74.40
76858;BME280;65830;0.000;0.000;2023-07-31T03:40:39;99120.41;;;21.62;74.68
76858;BME280;65830;0.000;0.000;2023-07-31T03:43:05;99121.84;;;21.65;75.13
76858;BME280;65830;0.000;0.000;2023-07-31T03:45:30;99128.88;;;21.66;74.92
76858;BME280;65830;0.000;0.000;2023-07-31T03:47:56;99127.16;;;21.71;74.76
76858;BME280;65830;0.000;0.000;2023-07-31T03:50:24;99136.47;;;21.75;74.78
76858;BME280;65830;0.000;0.000;2023-07-31T03:52:50;99150.78;;;21.76;74.80
76858;BME280;65830;0.000;0.000;2023-07-31T03:55:15;99155.66;;;21.67;75.18
76858;BME280;65830;0.000;0.000;2023-07-31T03:57:41;99163.38;;;21.45;76.95
76858;BME280;65830;0.000;0.000;2023-07-31T04:00:07;99162.84;;;21.30;78.01
76858;BME280;65830;0.000;0.000;2023-07-31T04:02:37;99161.44;;;21.20;78.47
76858;BME280;65830;0.000;0.000;2023-07-31T04:05:03;99155.34;;;21.32;78.70
76858;BME280;65830;0.000;0.000;2023-07-31T04:07:28;99164.25;;;21.32;76.74
76858;BME280;65830;0.000;0.000;2023-07-31T04:09:54;99159.31;;;21.29;76.42
76858;BME280;65830;0.000;0.000;2023-07-31T04:12:19;99164.25;;;21.32;76.71
76858;BME280;65830;0.000;0.000;2023-07-31T04:14:44;99167.53;;;21.41;76.78
76858;BME280;65830;0.000;0.000;2023-07-31T04:17:10;99165.25;;;21.38;76.74
76858;BME280;65830;0.000;0.000;2023-07-31T04:19:35;99171.03;;;21.41;76.95
76858;BME280;65830;0.000;0.000;2023-07-31T04:22:01;99173.09;;;21.46;77.64
76858;BME280;65830;0.000;0.000;2023-07-31T04:24:26;99173.94;;;21.47;77.30
76858;BME280;65830;0.000;0.000;2023-07-31T04:26:52;99172.59;;;21.56;77.33
76858;BME280;65830;0.000;0.000;2023-07-31T04:29:18;99175.25;;;21.63;76.46
76858;BME280;65830;0.000;0.000;2023-07-31T04:31:43;99184.31;;;21.68;75.92
76858;BME280;65830;0.000;0.000;2023-07-31T04:34:09;99190.28;;;21.52;76.24
76858;BME280;65830;0.000;0.000;2023-07-31T04:36:34;99194.34;;;21.61;76.22
76858;BME280;65830;0.000;0.000;2023-07-31T04:39:00;99190.75;;;21.67;75.86
76858;BME280;65830;0.000;0.000;2023-07-31T04:41:26;99191.81;;;21.66;75.02
76858;BME280;65830;0.000;0.000;2023-07-31T04:43:51;99196.00;;;21.62;75.20
76858;BME280;65830;0.000;0.000;2023-07-31T04:46:17;99181.25;;;21.65;74.90
76858;BME280;65830;0.000;0.000;2023-07-31T04:48:42;99188.88;;;21.68;74.55
76858;BME280;65830;0.000;0.000;2023-07-31T04:51:08;99188.84;;;21.74;74.52
76858;BME280;65830;0.000;0.000;2023-07-31T04:53:34;99186.97;;;21.75;73.23
76858;BME280;65830;0.000;0.000;2023-07-31T04:56:00;99185.84;;;21.83;73.39
76858;BME280;65830;0.000;0.000;2023-07-31T04:58:28;99185.16;;;21.87;73.11
76858;BME280;65830;0.000;0.000;2023-07-31T05:00:53;99178.78;;;22.00;73.01
76858;BME280;65830;0.000;0.000;2023-07-31T05:03:19;99182.91;;;22.02;72.37
76858;BME280;65830;0.000;0.000;2023-07-31T05:05:44;99183.91;;;22.08;72.73
76858;BME280;65830;0.000;0.000;2023-07-31T05:08:10;99181.41;;;22.07;72.51
76858;BME280;65830;0.000;0.000;2023-07-31T05:10:35;99186.59;;;22.08;72.86
76858;BME280;65830;0.000;0.000;2023-07-31T05:13:01;99182.25;;;22.07;72.04
76858;BME280;65830;0.000;0.000;2023-07-31T05:15:26;99183.59;;;22.16;72.44
76858;BME280;65830;0.000;0.000;2023-07-31T05:17:51;99179.69;;;22.12;71.36
76858;BME280;65830;0.000;0.000;2023-07-31T05:20:17;99176.63;;;22.09;71.36
76858;BME280;65830;0.000;0.000;2023-07-31T05:22:43;99180.59;;;22.06;71.14
76858;BME280;65830;0.000;0.000;2023-07-31T05:25:08;99186.72;;;22.13;71.27
76858;BME280;65830;0.000;0.000;2023-07-31T05:27:33;99187.94;;;22.17;70.36
76858;BME280;65830;0.000;0.000;2023-07-31T05:32:24;99184.13;;;22.25;69.55
76858;BME280;65830;0.000;0.000;2023-07-31T05:34:50;99191.22;;;22.19;69.90
76858;BME280;65830;0.000;0.000;2023-07-31T05:37:16;99191.41;;;22.25;69.26
76858;BME280;65830;0.000;0.000;2023-07-31T05:39:41;99194.13;;;22.25;68.22
76858;BME280;65830;0.000;0.000;2023-07-31T05:42:07;99197.81;;;22.30;68.60
76858;BME280;65830;0.000;0.000;2023-07-31T05:44:32;99200.25;;;22.32;68.39
76858;BME280;65830;0.000;0.000;2023-07-31T05:46:58;99201.00;;;22.39;67.76
76858;BME280;65830;0.000;0.000;2023-07-31T05:49:23;99195.81;;;22.37;68.92
76858;BME280;65830;0.000;0.000;2023-07-31T05:51:49;99201.38;;;22.43;68.60
76858;BME280;65830;0.000;0.000;2023-07-31T05:54:14;99197.28;;;22.40;68.12
76858;BME280;65830;0.000;0.000;2023-07-31T05:56:39;99210.91;;;22.45;69.13
76858;BME280;65830;0.000;0.000;2023-07-31T05:59:05;99213.66;;;22.57;68.78
76858;BME280;65830;0.000;0.000;2023-07-31T06:01:30;99211.34;;;22.60;68.09
76858;BME280;65830;0.000;0.000;2023-07-31T06:03:56;99205.38;;;22.70;68.98
76858;BME280;65830;0.000;0.000;2023-07-31T06:06:21;99209.19;;;22.81;67.43
76858;BME280;65830;0.000;0.000;2023-07-31T06:08:47;99202.41;;;22.90;66.86
76858;BME280;65830;0.000;0.000;2023-07-31T06:11:12;99203.13;;;22.97;65.50
76858;BME280;65830;0.000;0.000;2023-07-31T06:13:38;99198.84;;;23.08;64.41
76858;BME280;65830;0.000;0.000;2023-07-31T06:16:03;99198.16;;;23.25;64.73
76858;BME280;65830;0.000;0.000;2023-07-31T06:18:32;99196.03;;;23.38;63.79
76858;BME280;65830;0.000;0.000;2023-07-31T06:20:57;99198.75;;;23.50;64.14
76858;BME280;65830;0.000;0.000;2023-07-31T06:23:23;99196.28;;;23.60;62.87
76858;BME280;65830;0.000;0.000;2023-07-31T06:25:48;99205.50;;;23.59;62.38
76858;BME280;65830;0.000;0.000;2023-07-31T06:28:13;99203.72;;;23.65;62.13
76858;BME280;65830;0.000;0.000;2023-07-31T06:30:39;99204.91;;;23.69;62.37
76858;BME280;65830;0.000;0.000;2023-07-31T06:33:04;99210.94;;;23.83;62.01
76858;BME280;65830;0.000;0.000;2023-07-31T06:35:30;99208.00;;;23.85;61.86
76858;BME280;65830;0.000;0.000;2023-07-31T06:37:55;99203.63;;;23.84;61.35
76858;BME280;65830;0.000;0.000;2023-07-31T06:40:21;99198.34;;;23.89;62.03
76858;BME280;65830;0.000;0.000;2023-07-31T06:42:47;99193.81;;;24.06;61.51
76858;BME280;65830;0.000;0.000;2023-07-31T06:45:12;99196.41;;;24.13;61.58
76858;BME280;65830;0.000;0.000;2023-07-31T06:47:38;99203.19;;;24.27;60.71
76858;BME280;65830;0.000;0.000;2023-07-31T06:50:03;99202.75;;;24.30;60.60
76858;BME280;65830;0.000;0.000;2023-07-31T06:52:29;99193.41;;;24.38;60.00
76858;BME280;65830;0.000;0.000;2023-07-31T06:55:03;99208.94;;;24.43;60.62
76858;BME280;65830;0.000;0.000;2023-07-31T06:57:29;99200.94;;;24.36;59.99
76858;BME280;65830;0.000;0.000;2023-07-31T06:59:54;99198.09;;;24.43;59.58
76858;BME280;65830;0.000;0.000;2023-07-31T07:02:20;99202.94;;;24.41;59.43
76858;BME280;65830;0.000;0.000;2023-07-31T07:04:45;99197.28;;;24.42;58.93
76858;BME280;65830;0.000;0.000;2023-07-31T07:07:11;99196.94;;;24.50;59.57
76858;BME280;65830;0.000;0.000;2023-07-31T07:09:37;99192.38;;;24.68;59.05
76858;BME280;65830;0.000;0.000;2023-07-31T07:12:02;99194.00;;;24.69;58.71
76858;BME280;65830;0.000;0.000;2023-07-31T07:14:27;99195.69;;;24.87;58.67
76858;BME280;65830;0.000;0.000;2023-07-31T07:16:53;99198.25;;;24.93;58.70
76858;BME280;65830;0.000;0.000;2023-07-31T07:19:18;99190.94;;;24.94;58.11
76858;BME280;65830;0.000;0.000;2023-07-31T07:21:44;99214.06;;;24.96;58.05
76858;BME280;65830;0.000;0.000;2023-07-31T07:24:09;99205.28;;;25.06;58.16
76858;BME280;65830;0.000;0.000;2023-07-31T07:26:35;99199.59;;;25.08;58.36
76858;BME280;65830;0.000;0.000;2023-07-31T07:29:00;99195.47;;;25.05;58.06
76858;BME280;65830;0.000;0.000;2023-07-31T07:31:27;99201.81;;;25.11;57.88
76858;BME280;65830;0.000;0.000;2023-07-31T07:33:53;99187.25;;;25.17;57.87
76858;BME280;65830;0.000;0.000;2023-07-31T07:36:18;99192.91;;;25.27;58.01
76858;BME280;65830;0.000;0.000;2023-07-31T07:38:44;99192.66;;;25.46;57.65
76858;BME280;65830;0.000;0.000;2023-07-31T07:41:09;99190.00;;;25.51;56.92
76858;BME280;65830;0.000;0.000;2023-07-31T07:43:35;99198.63;;;25.65;57.12
76858;BME280;65830;0.000;0.000;2023-07-31T07:46:00;99195.81;;;25.76;56.94
76858;BME280;65830;0.000;0.000;2023-07-31T07:48:26;99196.13;;;25.97;56.03
76858;BME280;65830;0.000;0.000;2023-07-31T07:50:51;99190.50;;;26.04;55.36
76858;BME280;65830;0.000;0.000;2023-07-31T07:53:17;99185.25;;;25.97;54.79
76858;BME280;65830;0.000;0.000;2023-07-31T07:55:42;99189.69;;;26.03;54.58
76858;BME280;65830;0.000;0.000;2023-07-31T07:58:08;99194.59;;;26.06;54.75
76858;BME280;65830;0.000;0.000;2023-07-31T08:00:33;99185.03;;;25.99;54.60
76858;BME280;65830;0.000;0.000;2023-07-31T08:02:59;99185.16;;;26.09;55.05
76858;BME280;65830;0.000;0.000;2023-07-31T08:05:24;99182.91;;;26.06;54.60
76858;BME280;65830;0.000;0.000;2023-07-31T08:07:50;99182.16;;;26.10;54.67
76858;BME280;65830;0.000;0.000;2023-07-31T08:10:15;99177.59;;;26.16;54.18
76858;BME280;65830;0.000;0.000;2023-07-31T08:12:41;99181.16;;;26.17;53.68
76858;BME280;65830;0.000;0.000;2023-07-31T08:15:06;99177.88;;;26.14;53.96
76858;BME280;65830;0.000;0.000;2023-07-31T08:17:32;99170.41;;;26.05;53.55
76858;BME280;65830;0.000;0.000;2023-07-31T08:19:58;99168.25;;;26.07;53.40
76858;BME280;65830;0.000;0.000;2023-07-31T08:22:23;99181.78;;;26.24;52.21
76858;BME280;65830;0.000;0.000;2023-07-31T08:24:49;99177.16;;;26.24;51.90
76858;BME280;65830;0.000;0.000;2023-07-31T08:27:14;99166.59;;;26.28;52.23
76858;BME280;65830;0.000;0.000;2023-07-31T08:29:40;99161.03;;;26.40;50.56
76858;BME280;65830;0.000;0.000;2023-07-31T08:32:05;99156.72;;;26.44;51.25
76858;BME280;65830;0.000;0.000;2023-07-31T08:34:31;99161.53;;;26.59;51.31
76858;BME280;65830;0.000;0.000;2023-07-31T08:36:56;99167.41;;;26.72;51.97
76858;BME280;65830;0.000;0.000;2023-07-31T08:39:22;99167.19;;;26.79;50.88
76858;BME280;65830;0.000;0.000;2023-07-31T08:41:47;99171.13;;;26.93;50.37
76858;BME280;65830;0.000;0.000;2023-07-31T08:44:13;99170.00;;;26.89;50.13
76858;BME280;65830;0.000;0.000;2023-07-31T08:46:39;99174.94;;;26.92;50.53
76858;BME280;65830;0.000;0.000;2023-07-31T08:49:05;99172.22;;;26.92;50.35
76858;BME280;65830;0.000;0.000;2023-07-31T08:51:34;99173.91;;;26.99;50.39
76858;BME280;65830;0.000;0.000;2023-07-31T08:53:59;99167.50;;;27.15;49.61
76858;BME280;65830;0.000;0.000;2023-07-31T08:56:25;99170.13;;;27.32;48.80
76858;BME280;65830;0.000;0.000;2023-07-31T08:58:51;99162.72;;;27.27;48.55
76858;BME280;65830;0.000;0.000;2023-07-31T09:01:17;99162.72;;;27.27;49.31
76858;BME280;65830;0.000;0.000;2023-07-31T09:03:43;99164.69;;;27.32;48.65
76858;BME280;65830;0.000;0.000;2023-07-31T09:06:09;99167.88;;;27.24;48.40
76858;BME280;65830;0.000;0.000;2023-07-31T09:08:35;99163.72;;;27.21;49.02
76858;BME280;65830;0.000;0.000;2023-07-31T09:11:01;99180.34;;;27.20;48.79
76858;BME280;65830;0.000;0.000;2023-07-31T09:13:29;99164.81;;;27.20;50.48
76858;BME280;65830;0.000;0.000;2023-07-31T09:15:55;99172.03;;;27.31;47.88
76858;BME280;65830;0.000;0.000;2023-07-31T09:18:20;99169.34;;;27.37;48.00
76858;BME280;65830;0.000;0.000;2023-07-31T09:21:00;99161.97;;;27.37;48.49
76858;BME280;65830;0.000;0.000;2023-07-31T09:23:26;99154.97;;;27.46;47.90
76858;BME280;65830;0.000;0.000;2023-07-31T09:26:04;99156.06;;;27.50;47.61
76858;BME280;65830;0.000;0.000;2023-07-31T09:28:33;99154.72;;;27.48;48.68
76858;BME280;65830;0.000;0.000;2023-07-31T09:30:58;99151.34;;;27.73;47.04
76858;BME280;65830;0.000;0.000;2023-07-31T09:33:24;99146.34;;;27.65;47.25
76858;BME280;65830;0.000;0.000;2023-07-31T09:35:49;99146.13;;;27.71;49.30
76858;BME280;65830;0.000;0.000;2023-07-31T09:38:15;99139.88;;;27.76;46.70
76858;BME280;65830;0.000;0.000;2023-07-31T09:40:41;99143.97;;;27.79;45.10
76858;BME280;65830;0.000;0.000;2023-07-31T09:43:11;99141.50;;;27.72;45.85
76858;BME280;65830;0.000;0.000;2023-07-31T09:45:37;99140.50;;;27.88;45.16
76858;BME280;65830;0.000;0.000;2023-07-31T09:48:06;99133.44;;;27.92;44.69
76858;BME280;65830;0.000;0.000;2023-07-31T09:50:32;99137.19;;;27.86;44.70
76858;BME280;65830;0.000;0.000;2023-07-31T09:52:57;99132.06;;;27.90;46.34
76858;BME280;65830;0.000;0.000;2023-07-31T09:55:23;99133.78;;;28.01;46.64
76858;BME280;65830;0.000;0.000;2023-07-31T09:57:49;99135.72;;;28.11;43.78
76858;BME280;65830;0.000;0.000;2023-07-31T10:00:16;99139.00;;;28.18;43.55
76858;BME280;65830;0.000;0.000;2023-07-31T10:02:42;99140.69;;;28.29;43.12
76858;BME280;65830;0.000;0.000;2023-07-31T10:05:12;99136.59;;;28.27;44.59
76858;BME280;65830;0.000;0.000;2023-07-31T10:07:37;99131.13;;;28.32;43.14
76858;BME280;65830;0.000;0.000;2023-07-31T10:10:04;99133.88;;;28.27;44.29
76858;BME280;65830;0.000;0.000;2023-07-31T10:12:32;99124.56;;;28.23;44.19
76858;BME280;65830;0.000;0.000;2023-07-31T10:14:59;99118.81;;;28.14;45.05
76858;BME280;65830;0.000;0.000;2023-07-31T10:17:25;99121.28;;;28.26;44.33
76858;BME280;65830;0.000;0.000;2023-07-31T10:19:51;99121.03;;;28.27;43.30
76858;BME280;65830;0.000;0.000;2023-07-31T10:22:16;99113.13;;;28.21;43.57
76858;BME280;65830;0.000;0.000;2023-07-31T10:24:43;99110.16;;;28.32;43.73
76858;BME280;65830;0.000;0.000;2023-07-31T10:27:10;99111.50;;;28.35;43.41
76858;BME280;65830;0.000;0.000;2023-07-31T10:29:36;99105.50;;;28.38;44.13
76858;BME280;65830;0.000;0.000;2023-07-31T10:32:02;99102.81;;;28.48;42.74
76858;BME280;65830;0.000;0.000;2023-07-31T10:34:28;99095.47;;;28.54;42.32
76858;BME280;65830;0.000;0.000;2023-07-31T10:39:38;99091.38;;;28.51;40.95
76858;BME280;65830;0.000;0.000;2023-07-31T10:42:13;99096.56;;;28.53;40.55
76858;BME280;65830;0.000;0.000;2023-07-31T10:44:43;99080.19;;;28.58;42.43
76858;BME280;65830;0.000;0.000;2023-07-31T10:47:08;99082.09;;;28.68;42.61
76858;BME280;65830;0.000;0.000;2023-07-31T10:49:34;99070.66;;;28.86;42.16
76858;BME280;65830;0.000;0.000;2023-07-31T10:51:59;99074.19;;;29.02;41.39
76858;BME280;65830;0.000;0.000;2023-07-31T10:54:28;99071.47;;;29.02;41.41
76858;BME280;65830;0.000;0.000;2023-07-31T10:56:53;99069.28;;;29.15;40.27
76858;BME280;65830;0.000;0.000;2023-07-31T10:59:19;99066.53;;;29.04;40.41
76858;BME280;65830;0.000;0.000;2023-07-31T11:01:55;99051.50;;;29.07;41.77
76858;BME280;65830;0.000;0.000;2023-07-31T11:04:27;99056.16;;;29.17;43.38
76858;BME280;65830;0.000;0.000;2023-07-31T11:09:24;99059.69;;;29.38;43.08
76858;BME280;65830;0.000;0.000;2023-07-31T11:11:49;99061.53;;;29.53;44.60
76858;BME280;65830;0.000;0.000;2023-07-31T11:14:17;99065.34;;;29.57;44.24
76858;BME280;65830;0.000;0.000;2023-07-31T11:16:42;99076.03;;;29.48;45.04
76858;BME280;65830;0.000;0.000;2023-07-31T11:19:08;99097.09;;;29.42;44.77
76858;BME280;65830;0.000;0.000;2023-07-31T11:21:33;99089.22;;;29.15;46.56
76858;BME280;65830;0.000;0.000;2023-07-31T11:23:59;99090.28;;;28.83;46.96
76858;BME280;65830;0.000;0.000;2023-07-31T11:26:24;99082.13;;;28.63;46.97
76858;BME280;65830;0.000;0.000;2023-07-31T11:28:50;99087.78;;;28.46;46.99
76858;BME280;65830;0.000;0.000;2023-07-31T11:31:16;99087.22;;;28.33;49.22
76858;BME280;65830;0.000;0.000;2023-07-31T11:33:42;99078.75;;;28.25;47.32
76858;BME280;65830;0.000;0.000;2023-07-31T11:36:14;99078.19;;;28.18;48.27
76858;BME280;65830;0.000;0.000;2023-07-31T11:38:39;99077.38;;;28.17;48.00
76858;BME280;65830;0.000;0.000;2023-07-31T11:41:06;99080.94;;;28.28;47.80
76858;BME280;65830;0.000;0.000;2023-07-31T11:43:32;99078.84;;;28.50;47.11
76858;BME280;65830;0.000;0.000;2023-07-31T11:45:58;99071.75;;;28.80;46.49
76858;BME280;65830;0.000;0.000;2023-07-31T11:50:50;99070.84;;;29.41;45.36
76858;BME280;65830;0.000;0.000;2023-07-31T11:53:17;99061.47;;;29.73;43.53
76858;BME280;65830;0.000;0.000;2023-07-31T11:55:44;99062.41;;;30.08;42.30
76858;BME280;65830;0.000;0.000;2023-07-31T11:58:10;99060.63;;;30.33;42.83
76858;BME280;65830;0.000;0.000;2023-07-31T12:00:36;99061.22;;;30.69;41.13
76858;BME280;65830;0.000;0.000;2023-07-31T12:03:01;99053.97;;;30.88;41.50
76858;BME280;65830;0.000;0.000;2023-07-31T12:05:27;99052.47;;;31.25;40.81
76858;BME280;65830;0.000;0.000;2023-07-31T12:07:53;99056.88;;;31.26;41.50
76858;BME280;65830;0.000;0.000;2023-07-31T12:10:23;99055.75;;;31.27;40.36
76858;BME280;65830;0.000;0.000;2023-07-31T12:12:55;99040.25;;;31.42;40.09
76858;BME280;65830;0.000;0.000;2023-07-31T12:15:21;99040.03;;;31.62;39.43
76858;BME280;65830;0.000;0.000;2023-07-31T12:17:47;99037.94;;;31.97;40.10
76858;BME280;65830;0.000;0.000;2023-07-31T12:20:12;99038.56;;;32.32;39.60
76858;BME280;65830;0.000;0.000;2023-07-31T12:22:38;99041.66;;;32.44;43.72
76858;BME280;65830;0.000;0.000;2023-07-31T12:25:03;99034.25;;;32.64;39.31
76858;BME280;65830;0.000;0.000;2023-07-31T12:27:32;99033.22;;;32.93;37.25
76858;BME280;65830;0.000;0.000;2023-07-31T12:29:58;99016.75;;;33.07;38.16
76858;BME280;65830;0.000;0.000;2023-07-31T12:32:23;99027.16;;;33.23;40.60
76858;BME280;65830;0.000;0.000;2023-07-31T12:34:50;99016.38;;;33.41;35.77
76858;BME280;65830;0.000;0.000;2023-07-31T12:37:16;99023.13;;;33.62;35.46
76858;BME280;65830;0.000;0.000;2023-07-31T12:39:41;99018.00;;;33.70;37.64
76858;BME280;65830;0.000;0.000;2023-07-31T12:42:07;99015.06;;;34.02;34.83
76858;BME280;65830;0.000;0.000;2023-07-31T12:44:32;99009.63;;;34.11;34.47
76858;BME280;65830;0.000;0.000;2023-07-31T12:46:58;99011.66;;;34.33;33.75
76858;BME280;65830;0.000;0.000;2023-07-31T12:49:23;99012.41;;;34.48;34.55
76858;BME280;65830;0.000;0.000;2023-07-31T12:51:49;99009.19;;;34.54;35.12
76858;BME280;65830;0.000;0.000;2023-07-31T12:54:14;99013.63;;;34.64;34.76
76858;BME280;65830;0.000;0.000;2023-07-31T12:56:39;99004.75;;;34.45;34.50
76858;BME280;65830;0.000;0.000;2023-07-31T12:59:05;99008.13;;;34.19;35.01
76858;BME280;65830;0.000;0.000;2023-07-31T13:01:31;99012.44;;;33.97;38.06
76858;BME280;65830;0.000;0.000;2023-07-31T13:03:57;99007.38;;;33.91;35.98
76858;BME280;65830;0.000;0.000;2023-07-31T13:06:22;99006.56;;;33.90;35.19
76858;BME280;65830;0.000;0.000;2023-07-31T13:08:48;98997.81;;;33.60;36.96
76858;BME280;65830;0.000;0.000;2023-07-31T13:11:13;99002.31;;;33.29;37.46
76858;BME280;65830;0.000;0.000;2023-07-31T13:13:39;98998.28;;;32.93;38.46
76858;BME280;65830;0.000;0.000;2023-07-31T13:16:04;98997.94;;;32.67;38.19
76858;BME280;65830;0.000;0.000;2023-07-31T13:18:30;99000.78;;;32.43;38.41